sensor_id;sensor_type;location;lat;lon;timestamp;P1;durP1;ratioP1;P2;durP2;ratioP2
14030;SDS011;7090;49.436;8.490;2023-04-03T00:01:08;6.67;;;6.43;;
14030;SDS011;7090;49.436;8.490;2023-04-03T00:03:34;7.00;;;6.70;;
14030;SDS011;7090;49.436;8.490;2023-04-03T00:06:00;6.60;;;6.40;;
14030;SDS011;7090;49.436;8.490;2023-04-03T00:08:26;6.40;;;6.20;;
14030;SDS011;7090;49.436;8.490;2023-04-03T00:10:51;6.40;;;6.20;;
14030;SDS011;7090;49.436;8.490;2023-04-03T00:13:17;7.53;;;7.23;;
14030;SDS011;7090;49.436;8.490;2023-04-03T00:15:43;6.77;;;6.57;;
14030;SDS011;7090;49.436;8.490;2023-04-03T00:18:09;6.50;;;6.30;;
14030;SDS011;7090;49.436;8.490;2023-04-03T00:20:35;6.30;;;6.10;;
14030;SDS011;7090;49.436;8.490;2023-04-03T00:23:01;6.57;;;6.37;;
14030;SDS011;7090;49.436;8.490;2023-04-03T00:25:27;6.80;;;6.50;;
14030;SDS011;7090;49.436;8.490;2023-04-03T00:27:53;6.67;;;6.47;;
14030;SDS011;7090;49.436;8.490;2023-04-03T00:30:20;6.53;;;6.33;;
14030;SDS011;7090;49.436;8.490;2023-04-03T00:32:49;6.60;;;6.40;;
14030;SDS011;7090;49.436;8.490;2023-04-03T00:35:15;6.50;;;6.30;;
14030;SDS011;7090;49.436;8.490;2023-04-03T00:37:42;6.73;;;6.43;;
14030;SDS011;7090;49.436;8.490;2023-04-03T00:40:08;6.33;;;6.13;;
14030;SDS011;7090;49.436;8.490;2023-04-03T00:42:38;6.87;;;6.57;;
14030;SDS011;7090;49.436;8.490;2023-04-03T00:47:31;6.90;;;6.60;;
14030;SDS011;7090;49.436;8.490;2023-04-03T00:49:57;6.30;;;6.10;;
14030;SDS011;7090;49.436;8.490;2023-04-03T00:52:25;7.63;;;7.33;;
14030;SDS011;7090;49.436;8.490;2023-04-03T00:54:54;7.00;;;6.70;;
14030;SDS011;7090;49.436;8.490;2023-04-03T00:57:24;6.80;;;6.50;;
14030;SDS011;7090;49.436;8.490;2023-04-03T00:59:50;7.33;;;7.03;;
14030;SDS011;7090;49.436;8.490;2023-04-03T01:02:20;7.00;;;6.70;;
14030;SDS011;7090;49.436;8.490;2023-04-03T01:04:46;7.17;;;6.87;;
14030;SDS011;7090;49.436;8.490;2023-04-03T01:09:47;6.90;;;6.60;;
14030;SDS011;7090;49.436;8.490;2023-04-03T01:14:47;6.70;;;6.50;;
14030;SDS011;7090;49.436;8.490;2023-04-03T01:22:56;6.90;;;6.70;;
14030;SDS011;7090;49.436;8.490;2023-04-03T01:25:42;7.63;;;7.33;;
14030;SDS011;7090;49.436;8.490;2023-04-03T01:28:13;7.23;;;6.80;;
14030;SDS011;7090;49.436;8.490;2023-04-03T01:33:44;6.90;;;6.70;;
14030;SDS011;7090;49.436;8.490;2023-04-03T01:36:13;7.43;;;7.13;;
14030;SDS011;7090;49.436;8.490;2023-04-03T01:38:40;7.10;;;6.80;;
14030;SDS011;7090;49.436;8.490;2023-04-03T01:41:06;7.57;;;7.17;;
14030;SDS011;7090;49.436;8.490;2023-04-03T01:43:31;8.47;;;7.90;;
14030;SDS011;7090;49.436;8.490;2023-04-03T01:45:57;7.10;;;6.70;;
14030;SDS011;7090;49.436;8.490;2023-04-03T01:48:23;7.20;;;6.90;;
14030;SDS011;7090;49.436;8.490;2023-04-03T01:50:48;7.17;;;6.87;;
14030;SDS011;7090;49.436;8.490;2023-04-03T01:53:14;6.90;;;6.70;;
14030;SDS011;7090;49.436;8.490;2023-04-03T01:55:39;7.77;;;7.07;;
14030;SDS011;7090;49.436;8.490;2023-04-03T01:58:05;7.47;;;7.17;;
14030;SDS011;7090;49.436;8.490;2023-04-03T02:00:30;7.53;;;7.23;;
14030;SDS011;7090;49.436;8.490;2023-04-03T02:02:56;7.60;;;7.23;;
14030;SDS011;7090;49.436;8.490;2023-04-03T02:05:22;6.80;;;6.60;;
14030;SDS011;7090;49.436;8.490;2023-04-03T02:07:47;7.00;;;6.80;;
14030;SDS011;7090;49.436;8.490;2023-04-03T02:10:13;8.80;;;8.40;;
14030;SDS011;7090;49.436;8.490;2023-04-03T02:12:39;7.70;;;7.40;;
14030;SDS011;7090;49.436;8.490;2023-04-03T02:15:04;8.63;;;8.20;;
14030;SDS011;7090;49.436;8.490;2023-04-03T02:17:30;7.97;;;7.67;;
14030;SDS011;7090;49.436;8.490;2023-04-03T02:19:56;8.37;;;8.07;;
14030;SDS011;7090;49.436;8.490;2023-04-03T02:22:22;9.20;;;8.70;;
14030;SDS011;7090;49.436;8.490;2023-04-03T02:24:47;8.67;;;8.27;;
14030;SDS011;7090;49.436;8.490;2023-04-03T02:27:13;8.13;;;7.83;;
14030;SDS011;7090;49.436;8.490;2023-04-03T02:29:38;8.50;;;8.20;;
14030;SDS011;7090;49.436;8.490;2023-04-03T02:32:04;8.63;;;8.23;;
14030;SDS011;7090;49.436;8.490;2023-04-03T02:34:30;7.80;;;7.50;;
14030;SDS011;7090;49.436;8.490;2023-04-03T02:36:55;8.43;;;8.13;;
14030;SDS011;7090;49.436;8.490;2023-04-03T02:39:21;8.13;;;7.73;;
14030;SDS011;7090;49.436;8.490;2023-04-03T02:41:46;8.97;;;8.60;;
14030;SDS011;7090;49.436;8.490;2023-04-03T02:44:12;8.73;;;8.33;;
14030;SDS011;7090;49.436;8.490;2023-04-03T02:46:38;7.97;;;7.67;;
14030;SDS011;7090;49.436;8.490;2023-04-03T02:49:04;8.30;;;7.90;;
14030;SDS011;7090;49.436;8.490;2023-04-03T02:51:30;8.60;;;8.20;;
14030;SDS011;7090;49.436;8.490;2023-04-03T02:53:56;10.23;;;7.80;;
14030;SDS011;7090;49.436;8.490;2023-04-03T02:56:22;8.97;;;8.57;;
14030;SDS011;7090;49.436;8.490;2023-04-03T02:58:47;8.20;;;7.90;;
14030;SDS011;7090;49.436;8.490;2023-04-03T03:01:13;10.03;;;8.67;;
14030;SDS011;7090;49.436;8.490;2023-04-03T03:03:39;8.40;;;8.00;;
14030;SDS011;7090;49.436;8.490;2023-04-03T03:06:06;8.90;;;8.50;;
14030;SDS011;7090;49.436;8.490;2023-04-03T03:08:33;8.07;;;7.77;;
14030;SDS011;7090;49.436;8.490;2023-04-03T03:11:01;8.30;;;8.00;;
14030;SDS011;7090;49.436;8.490;2023-04-03T03:13:28;9.10;;;8.70;;
14030;SDS011;7090;49.436;8.490;2023-04-03T03:15:54;8.93;;;8.60;;
14030;SDS011;7090;49.436;8.490;2023-04-03T03:18:20;8.70;;;8.40;;
14030;SDS011;7090;49.436;8.490;2023-04-03T03:20:45;9.03;;;8.63;;
14030;SDS011;7090;49.436;8.490;2023-04-03T03:23:11;9.73;;;9.23;;
14030;SDS011;7090;49.436;8.490;2023-04-03T03:25:40;9.17;;;8.87;;
14030;SDS011;7090;49.436;8.490;2023-04-03T03:28:06;9.17;;;8.77;;
14030;SDS011;7090;49.436;8.490;2023-04-03T03:30:32;9.00;;;8.70;;
14030;SDS011;7090;49.436;8.490;2023-04-03T03:32:58;9.17;;;8.77;;
14030;SDS011;7090;49.436;8.490;2023-04-03T03:35:24;9.00;;;8.70;;
14030;SDS011;7090;49.436;8.490;2023-04-03T03:37:49;9.53;;;9.13;;
14030;SDS011;7090;49.436;8.490;2023-04-03T03:40:15;8.87;;;8.57;;
14030;SDS011;7090;49.436;8.490;2023-04-03T03:42:40;9.50;;;9.10;;
14030;SDS011;7090;49.436;8.490;2023-04-03T03:45:06;9.40;;;9.00;;
14030;SDS011;7090;49.436;8.490;2023-04-03T03:47:32;9.97;;;9.50;;
14030;SDS011;7090;49.436;8.490;2023-04-03T03:49:58;9.43;;;9.03;;
14030;SDS011;7090;49.436;8.490;2023-04-03T03:52:24;11.07;;;10.33;;
14030;SDS011;7090;49.436;8.490;2023-04-03T03:54:49;9.17;;;8.87;;
14030;SDS011;7090;49.436;8.490;2023-04-03T03:57:15;8.70;;;8.40;;
14030;SDS011;7090;49.436;8.490;2023-04-03T03:59:41;8.90;;;8.50;;
14030;SDS011;7090;49.436;8.490;2023-04-03T04:02:07;9.73;;;9.33;;
14030;SDS011;7090;49.436;8.490;2023-04-03T04:04:33;9.07;;;8.73;;
14030;SDS011;7090;49.436;8.490;2023-04-03T04:06:59;8.80;;;8.50;;
14030;SDS011;7090;49.436;8.490;2023-04-03T04:09:25;9.30;;;8.70;;
14030;SDS011;7090;49.436;8.490;2023-04-03T04:11:51;9.07;;;8.73;;
14030;SDS011;7090;49.436;8.490;2023-04-03T04:14:17;8.80;;;8.50;;
14030;SDS011;7090;49.436;8.490;2023-04-03T04:16:45;10.13;;;9.73;;
14030;SDS011;7090;49.436;8.490;2023-04-03T04:19:11;9.03;;;8.63;;
14030;SDS011;7090;49.436;8.490;2023-04-03T04:21:37;9.70;;;9.30;;
14030;SDS011;7090;49.436;8.490;2023-04-03T04:24:02;9.43;;;9.03;;
14030;SDS011;7090;49.436;8.490;2023-04-03T04:26:28;9.00;;;8.70;;
14030;SDS011;7090;49.436;8.490;2023-04-03T04:28:54;9.20;;;8.90;;
14030;SDS011;7090;49.436;8.490;2023-04-03T04:31:19;9.17;;;8.87;;
14030;SDS011;7090;49.436;8.490;2023-04-03T04:33:45;8.90;;;8.60;;
14030;SDS011;7090;49.436;8.490;2023-04-03T04:36:10;10.07;;;9.67;;
14030;SDS011;7090;49.436;8.490;2023-04-03T04:38:36;8.90;;;8.60;;
14030;SDS011;7090;49.436;8.490;2023-04-03T04:41:02;9.63;;;9.23;;
14030;SDS011;7090;49.436;8.490;2023-04-03T04:43:27;9.90;;;9.50;;
14030;SDS011;7090;49.436;8.490;2023-04-03T04:46:00;9.80;;;9.40;;
14030;SDS011;7090;49.436;8.490;2023-04-03T04:48:28;9.87;;;9.47;;
14030;SDS011;7090;49.436;8.490;2023-04-03T04:50:54;11.77;;;10.87;;
14030;SDS011;7090;49.436;8.490;2023-04-03T04:53:20;9.43;;;9.03;;
14030;SDS011;7090;49.436;8.490;2023-04-03T04:55:45;9.90;;;9.50;;
14030;SDS011;7090;49.436;8.490;2023-04-03T04:58:11;9.90;;;9.50;;
14030;SDS011;7090;49.436;8.490;2023-04-03T05:00:36;9.90;;;9.50;;
14030;SDS011;7090;49.436;8.490;2023-04-03T05:03:02;10.63;;;10.13;;
14030;SDS011;7090;49.436;8.490;2023-04-03T05:05:28;9.07;;;8.77;;
14030;SDS011;7090;49.436;8.490;2023-04-03T05:07:53;9.83;;;9.43;;
14030;SDS011;7090;49.436;8.490;2023-04-03T05:10:19;10.37;;;9.87;;
14030;SDS011;7090;49.436;8.490;2023-04-03T05:12:45;9.43;;;9.03;;
14030;SDS011;7090;49.436;8.490;2023-04-03T05:15:11;11.07;;;10.37;;
14030;SDS011;7090;49.436;8.490;2023-04-03T05:17:36;9.67;;;9.27;;
14030;SDS011;7090;49.436;8.490;2023-04-03T05:20:02;10.67;;;10.10;;
14030;SDS011;7090;49.436;8.490;2023-04-03T05:22:29;13.33;;;11.40;;
14030;SDS011;7090;49.436;8.490;2023-04-03T05:24:55;11.23;;;10.70;;
14030;SDS011;7090;49.436;8.490;2023-04-03T05:27:21;9.90;;;9.50;;
14030;SDS011;7090;49.436;8.490;2023-04-03T05:29:48;10.80;;;10.30;;
14030;SDS011;7090;49.436;8.490;2023-04-03T05:32:14;10.82;;;10.32;;
14030;SDS011;7090;49.436;8.490;2023-04-03T05:34:40;10.53;;;10.03;;
14030;SDS011;7090;49.436;8.490;2023-04-03T05:37:06;10.70;;;10.20;;
14030;SDS011;7090;49.436;8.490;2023-04-03T05:39:32;10.30;;;9.90;;
14030;SDS011;7090;49.436;8.490;2023-04-03T05:41:58;9.47;;;9.17;;
14030;SDS011;7090;49.436;8.490;2023-04-03T05:44:23;9.83;;;9.43;;
14030;SDS011;7090;49.436;8.490;2023-04-03T05:46:49;10.43;;;10.00;;
14030;SDS011;7090;49.436;8.490;2023-04-03T05:49:14;9.57;;;9.17;;
14030;SDS011;7090;49.436;8.490;2023-04-03T05:51:40;9.60;;;9.20;;
14030;SDS011;7090;49.436;8.490;2023-04-03T05:54:08;18.37;;;9.53;;
14030;SDS011;7090;49.436;8.490;2023-04-03T05:56:35;10.03;;;9.57;;
14030;SDS011;7090;49.436;8.490;2023-04-03T05:59:00;9.17;;;8.87;;
14030;SDS011;7090;49.436;8.490;2023-04-03T06:01:26;10.33;;;9.83;;
14030;SDS011;7090;49.436;8.490;2023-04-03T06:07:04;9.10;;;8.70;;
14030;SDS011;7090;49.436;8.490;2023-04-03T06:09:31;9.13;;;8.73;;
14030;SDS011;7090;49.436;8.490;2023-04-03T06:11:57;9.63;;;8.80;;
14030;SDS011;7090;49.436;8.490;2023-04-03T06:14:23;9.30;;;8.90;;
14030;SDS011;7090;49.436;8.490;2023-04-03T06:16:50;9.25;;;8.85;;
14030;SDS011;7090;49.436;8.490;2023-04-03T06:19:16;8.57;;;8.27;;
14030;SDS011;7090;49.436;8.490;2023-04-03T06:21:42;9.00;;;8.60;;
14030;SDS011;7090;49.436;8.490;2023-04-03T06:24:07;8.60;;;8.20;;
14030;SDS011;7090;49.436;8.490;2023-04-03T06:26:34;8.20;;;7.80;;
14030;SDS011;7090;49.436;8.490;2023-04-03T06:29:00;8.60;;;8.30;;
14030;SDS011;7090;49.436;8.490;2023-04-03T06:31:27;9.03;;;8.63;;
14030;SDS011;7090;49.436;8.490;2023-04-03T06:33:52;8.00;;;7.70;;
14030;SDS011;7090;49.436;8.490;2023-04-03T06:36:18;9.20;;;8.77;;
14030;SDS011;7090;49.436;8.490;2023-04-03T06:38:45;8.23;;;7.87;;
14030;SDS011;7090;49.436;8.490;2023-04-03T06:41:11;8.97;;;8.37;;
14030;SDS011;7090;49.436;8.490;2023-04-03T06:43:37;8.30;;;7.93;;
14030;SDS011;7090;49.436;8.490;2023-04-03T06:46:03;7.97;;;7.68;;
14030;SDS011;7090;49.436;8.490;2023-04-03T06:48:29;7.60;;;7.30;;
14030;SDS011;7090;49.436;8.490;2023-04-03T06:50:54;7.80;;;7.50;;
14030;SDS011;7090;49.436;8.490;2023-04-03T06:53:20;9.02;;;8.32;;
14030;SDS011;7090;49.436;8.490;2023-04-03T06:55:46;8.17;;;7.80;;
14030;SDS011;7090;49.436;8.490;2023-04-03T06:58:12;8.77;;;8.37;;
14030;SDS011;7090;49.436;8.490;2023-04-03T07:00:40;9.40;;;8.30;;
14030;SDS011;7090;49.436;8.490;2023-04-03T07:03:06;6.77;;;6.57;;
14030;SDS011;7090;49.436;8.490;2023-04-03T07:05:31;8.55;;;8.05;;
14030;SDS011;7090;49.436;8.490;2023-04-03T07:07:57;7.47;;;7.17;;
14030;SDS011;7090;49.436;8.490;2023-04-03T07:10:23;7.10;;;6.77;;
14030;SDS011;7090;49.436;8.490;2023-04-03T07:12:48;6.90;;;6.70;;
14030;SDS011;7090;49.436;8.490;2023-04-03T07:15:14;8.67;;;7.93;;
14030;SDS011;7090;49.436;8.490;2023-04-03T07:17:40;10.97;;;7.63;;
14030;SDS011;7090;49.436;8.490;2023-04-03T07:20:06;8.17;;;7.80;;
14030;SDS011;7090;49.436;8.490;2023-04-03T07:22:33;8.00;;;7.70;;
14030;SDS011;7090;49.436;8.490;2023-04-03T07:24:58;7.60;;;7.30;;
14030;SDS011;7090;49.436;8.490;2023-04-03T07:27:24;8.50;;;7.97;;
14030;SDS011;7090;49.436;8.490;2023-04-03T07:29:50;7.60;;;7.23;;
14030;SDS011;7090;49.436;8.490;2023-04-03T07:32:16;6.80;;;6.60;;
14030;SDS011;7090;49.436;8.490;2023-04-03T07:34:42;7.10;;;6.80;;
14030;SDS011;7090;49.436;8.490;2023-04-03T07:37:08;8.50;;;8.10;;
14030;SDS011;7090;49.436;8.490;2023-04-03T07:39:34;7.80;;;7.50;;
14030;SDS011;7090;49.436;8.490;2023-04-03T07:42:00;7.50;;;7.20;;
14030;SDS011;7090;49.436;8.490;2023-04-03T07:44:26;8.57;;;8.13;;
14030;SDS011;7090;49.436;8.490;2023-04-03T07:46:52;8.63;;;8.03;;
14030;SDS011;7090;49.436;8.490;2023-04-03T07:49:20;8.50;;;8.10;;
14030;SDS011;7090;49.436;8.490;2023-04-03T07:51:47;8.13;;;7.77;;
14030;SDS011;7090;49.436;8.490;2023-04-03T07:54:13;8.20;;;7.90;;
14030;SDS011;7090;49.436;8.490;2023-04-03T07:56:40;7.80;;;7.50;;
14030;SDS011;7090;49.436;8.490;2023-04-03T07:59:07;8.30;;;7.90;;
14030;SDS011;7090;49.436;8.490;2023-04-03T08:01:33;7.90;;;7.60;;
14030;SDS011;7090;49.436;8.490;2023-04-03T08:03:59;8.53;;;8.03;;
14030;SDS011;7090;49.436;8.490;2023-04-03T08:06:25;8.00;;;7.70;;
14030;SDS011;7090;49.436;8.490;2023-04-03T08:08:51;7.90;;;7.60;;
14030;SDS011;7090;49.436;8.490;2023-04-03T08:11:17;7.80;;;7.50;;
14030;SDS011;7090;49.436;8.490;2023-04-03T08:13:43;8.73;;;8.27;;
14030;SDS011;7090;49.436;8.490;2023-04-03T08:16:15;8.30;;;8.00;;
14030;SDS011;7090;49.436;8.490;2023-04-03T08:18:43;8.93;;;8.53;;
14030;SDS011;7090;49.436;8.490;2023-04-03T08:21:09;7.93;;;7.63;;
14030;SDS011;7090;49.436;8.490;2023-04-03T08:23:35;8.67;;;8.27;;
14030;SDS011;7090;49.436;8.490;2023-04-03T08:26:06;7.57;;;7.27;;
14030;SDS011;7090;49.436;8.490;2023-04-03T08:28:33;9.37;;;8.87;;
14030;SDS011;7090;49.436;8.490;2023-04-03T08:31:01;9.20;;;8.60;;
14030;SDS011;7090;49.436;8.490;2023-04-03T08:33:30;9.40;;;8.90;;
14030;SDS011;7090;49.436;8.490;2023-04-03T08:35:56;8.50;;;8.10;;
14030;SDS011;7090;49.436;8.490;2023-04-03T08:38:22;9.03;;;8.53;;
14030;SDS011;7090;49.436;8.490;2023-04-03T08:40:47;9.43;;;8.73;;
14030;SDS011;7090;49.436;8.490;2023-04-03T08:43:29;8.50;;;8.10;;
14030;SDS011;7090;49.436;8.490;2023-04-03T08:46:10;9.10;;;8.70;;
14030;SDS011;7090;49.436;8.490;2023-04-03T08:48:40;10.00;;;9.40;;
14030;SDS011;7090;49.436;8.490;2023-04-03T08:51:14;9.30;;;8.80;;
14030;SDS011;7090;49.436;8.490;2023-04-03T08:54:04;9.10;;;8.70;;
14030;SDS011;7090;49.436;8.490;2023-04-03T08:56:33;8.93;;;8.43;;
14030;SDS011;7090;49.436;8.490;2023-04-03T08:59:00;9.43;;;8.83;;
14030;SDS011;7090;49.436;8.490;2023-04-03T09:03:58;8.00;;;7.70;;
14030;SDS011;7090;49.436;8.490;2023-04-03T09:06:27;8.90;;;8.33;;
14030;SDS011;7090;49.436;8.490;2023-04-03T09:21:58;8.93;;;8.52;;
14030;SDS011;7090;49.436;8.490;2023-04-03T09:24:27;8.97;;;8.43;;
14030;SDS011;7090;49.436;8.490;2023-04-03T09:26:56;9.27;;;8.77;;
14030;SDS011;7090;49.436;8.490;2023-04-03T09:29:27;9.05;;;8.65;;
14030;SDS011;7090;49.436;8.490;2023-04-03T09:31:56;8.97;;;8.57;;
14030;SDS011;7090;49.436;8.490;2023-04-03T09:37:01;8.83;;;8.43;;
14030;SDS011;7090;49.436;8.490;2023-04-03T09:39:33;10.30;;;9.60;;
14030;SDS011;7090;49.436;8.490;2023-04-03T09:42:22;9.00;;;8.50;;
14030;SDS011;7090;49.436;8.490;2023-04-03T09:52:40;9.40;;;9.00;;
14030;SDS011;7090;49.436;8.490;2023-04-03T09:55:08;10.50;;;9.70;;
14030;SDS011;7090;49.436;8.490;2023-04-03T09:57:38;9.77;;;9.20;;
14030;SDS011;7090;49.436;8.490;2023-04-03T10:00:04;9.50;;;9.10;;
14030;SDS011;7090;49.436;8.490;2023-04-03T10:02:34;9.70;;;9.30;;
14030;SDS011;7090;49.436;8.490;2023-04-03T10:05:01;8.60;;;8.23;;
14030;SDS011;7090;49.436;8.490;2023-04-03T10:12:39;9.43;;;8.83;;
14030;SDS011;7090;49.436;8.490;2023-04-03T10:15:11;8.75;;;8.35;;
14030;SDS011;7090;49.436;8.490;2023-04-03T10:25:42;8.47;;;8.17;;
14030;SDS011;7090;49.436;8.490;2023-04-03T10:31:03;8.83;;;8.40;;
14030;SDS011;7090;49.436;8.490;2023-04-03T10:42:00;8.80;;;8.40;;
14030;SDS011;7090;49.436;8.490;2023-04-03T10:53:22;8.40;;;8.10;;
14030;SDS011;7090;49.436;8.490;2023-04-03T10:55:49;8.90;;;8.50;;
14030;SDS011;7090;49.436;8.490;2023-04-03T10:58:34;9.00;;;8.50;;
14030;SDS011;7090;49.436;8.490;2023-04-03T11:01:08;9.00;;;8.60;;
14030;SDS011;7090;49.436;8.490;2023-04-03T11:03:40;9.00;;;8.60;;
14030;SDS011;7090;49.436;8.490;2023-04-03T11:06:15;9.23;;;8.73;;
14030;SDS011;7090;49.436;8.490;2023-04-03T11:11:37;9.70;;;9.02;;
14030;SDS011;7090;49.436;8.490;2023-04-03T11:14:14;9.10;;;8.70;;
14030;SDS011;7090;49.436;8.490;2023-04-03T11:17:19;9.57;;;9.00;;
14030;SDS011;7090;49.436;8.490;2023-04-03T11:22:41;9.17;;;8.73;;
14030;SDS011;7090;49.436;8.490;2023-04-03T11:30:15;8.87;;;8.47;;
14030;SDS011;7090;49.436;8.490;2023-04-03T11:33:47;8.98;;;8.57;;
14030;SDS011;7090;49.436;8.490;2023-04-03T11:36:45;9.17;;;8.77;;
14030;SDS011;7090;49.436;8.490;2023-04-03T11:38:54;9.20;;;8.80;;
14030;SDS011;7090;49.436;8.490;2023-04-03T11:41:26;12.30;;;10.97;;
14030;SDS011;7090;49.436;8.490;2023-04-03T11:47:02;10.00;;;9.50;;
14030;SDS011;7090;49.436;8.490;2023-04-03T12:08:30;8.43;;;8.00;;
14030;SDS011;7090;49.436;8.490;2023-04-03T12:26:51;9.63;;;9.03;;
14030;SDS011;7090;49.436;8.490;2023-04-03T12:46:26;9.33;;;8.93;;
14030;SDS011;7090;49.436;8.490;2023-04-03T12:49:00;8.70;;;8.40;;
14030;SDS011;7090;49.436;8.490;2023-04-03T12:54:04;9.87;;;9.33;;
14030;SDS011;7090;49.436;8.490;2023-04-03T12:56:39;8.50;;;8.10;;
14030;SDS011;7090;49.436;8.490;2023-04-03T12:59:24;9.90;;;9.30;;
14030;SDS011;7090;49.436;8.490;2023-04-03T13:01:58;9.63;;;9.00;;
14030;SDS011;7090;49.436;8.490;2023-04-03T13:04:24;9.70;;;9.20;;
14030;SDS011;7090;49.436;8.490;2023-04-03T13:06:52;9.00;;;8.60;;
14030;SDS011;7090;49.436;8.490;2023-04-03T13:09:22;10.27;;;9.57;;
14030;SDS011;7090;49.436;8.490;2023-04-03T13:11:55;8.60;;;8.20;;
14030;SDS011;7090;49.436;8.490;2023-04-03T13:14:27;8.90;;;8.50;;
14030;SDS011;7090;49.436;8.490;2023-04-03T13:19:35;10.03;;;9.13;;
14030;SDS011;7090;49.436;8.490;2023-04-03T13:22:05;8.77;;;8.37;;
14030;SDS011;7090;49.436;8.490;2023-04-03T13:24:34;8.87;;;8.47;;
14030;SDS011;7090;49.436;8.490;2023-04-03T13:27:03;10.43;;;9.73;;
14030;SDS011;7090;49.436;8.490;2023-04-03T13:29:31;9.00;;;8.60;;
14030;SDS011;7090;49.436;8.490;2023-04-03T13:31:59;9.30;;;8.70;;
14030;SDS011;7090;49.436;8.490;2023-04-03T13:34:27;9.47;;;8.90;;
14030;SDS011;7090;49.436;8.490;2023-04-03T13:36:57;9.57;;;9.17;;
14030;SDS011;7090;49.436;8.490;2023-04-03T13:41:59;10.03;;;9.50;;
14030;SDS011;7090;49.436;8.490;2023-04-03T13:44:38;9.40;;;8.90;;
14030;SDS011;7090;49.436;8.490;2023-04-03T13:50:24;9.23;;;8.83;;
14030;SDS011;7090;49.436;8.490;2023-04-03T14:03:25;10.55;;;10.05;;
14030;SDS011;7090;49.436;8.490;2023-04-03T14:05:51;10.70;;;10.00;;
14030;SDS011;7090;49.436;8.490;2023-04-03T14:08:17;9.30;;;8.90;;
14030;SDS011;7090;49.436;8.490;2023-04-03T14:10:44;9.80;;;9.40;;
14030;SDS011;7090;49.436;8.490;2023-04-03T14:13:13;9.87;;;9.27;;
14030;SDS011;7090;49.436;8.490;2023-04-03T14:15:40;9.10;;;8.70;;
14030;SDS011;7090;49.436;8.490;2023-04-03T14:18:10;8.90;;;8.50;;
14030;SDS011;7090;49.436;8.490;2023-04-03T14:20:37;9.10;;;8.70;;
14030;SDS011;7090;49.436;8.490;2023-04-03T14:23:03;9.75;;;9.35;;
14030;SDS011;7090;49.436;8.490;2023-04-03T14:25:29;9.57;;;9.17;;
14030;SDS011;7090;49.436;8.490;2023-04-03T14:27:54;10.43;;;9.93;;
14030;SDS011;7090;49.436;8.490;2023-04-03T14:30:22;10.10;;;9.60;;
14030;SDS011;7090;49.436;8.490;2023-04-03T14:32:50;10.73;;;10.10;;
14030;SDS011;7090;49.436;8.490;2023-04-03T14:35:16;10.17;;;9.67;;
14030;SDS011;7090;49.436;8.490;2023-04-03T14:37:42;10.50;;;10.00;;
14030;SDS011;7090;49.436;8.490;2023-04-03T14:40:11;9.40;;;9.00;;
14030;SDS011;7090;49.436;8.490;2023-04-03T14:42:40;9.40;;;9.00;;
14030;SDS011;7090;49.436;8.490;2023-04-03T14:45:10;9.80;;;9.40;;
14030;SDS011;7090;49.436;8.490;2023-04-03T14:47:39;9.50;;;9.10;;
14030;SDS011;7090;49.436;8.490;2023-04-03T14:50:15;9.30;;;8.90;;
14030;SDS011;7090;49.436;8.490;2023-04-03T14:52:49;9.77;;;9.37;;
14030;SDS011;7090;49.436;8.490;2023-04-03T14:55:19;9.33;;;8.93;;
14030;SDS011;7090;49.436;8.490;2023-04-03T14:57:46;10.67;;;10.10;;
14030;SDS011;7090;49.436;8.490;2023-04-03T15:00:19;10.33;;;9.83;;
14030;SDS011;7090;49.436;8.490;2023-04-03T15:02:46;10.07;;;9.60;;
14030;SDS011;7090;49.436;8.490;2023-04-03T15:05:13;9.87;;;9.40;;
14030;SDS011;7090;49.436;8.490;2023-04-03T15:07:40;10.15;;;9.65;;
14030;SDS011;7090;49.436;8.490;2023-04-03T15:10:19;10.00;;;9.60;;
14030;SDS011;7090;49.436;8.490;2023-04-03T15:12:47;10.38;;;9.88;;
14030;SDS011;7090;49.436;8.490;2023-04-03T15:15:22;10.10;;;9.37;;
14030;SDS011;7090;49.436;8.490;2023-04-03T15:17:53;8.93;;;8.63;;
14030;SDS011;7090;49.436;8.490;2023-04-03T15:20:21;9.33;;;8.93;;
14030;SDS011;7090;49.436;8.490;2023-04-03T15:22:49;9.40;;;9.00;;
14030;SDS011;7090;49.436;8.490;2023-04-03T15:25:15;9.70;;;9.30;;
14030;SDS011;7090;49.436;8.490;2023-04-03T15:27:40;9.82;;;9.43;;
14030;SDS011;7090;49.436;8.490;2023-04-03T15:30:07;9.80;;;9.40;;
14030;SDS011;7090;49.436;8.490;2023-04-03T15:32:36;9.90;;;9.50;;
14030;SDS011;7090;49.436;8.490;2023-04-03T15:35:01;10.00;;;9.60;;
14030;SDS011;7090;49.436;8.490;2023-04-03T15:37:27;10.20;;;9.80;;
14030;SDS011;7090;49.436;8.490;2023-04-03T15:39:53;10.10;;;9.70;;
14030;SDS011;7090;49.436;8.490;2023-04-03T15:42:19;10.17;;;9.67;;
14030;SDS011;7090;49.436;8.490;2023-04-03T15:44:44;9.90;;;9.50;;
14030;SDS011;7090;49.436;8.490;2023-04-03T15:47:10;10.30;;;9.90;;
14030;SDS011;7090;49.436;8.490;2023-04-03T15:49:35;10.30;;;9.80;;
14030;SDS011;7090;49.436;8.490;2023-04-03T15:52:02;9.90;;;9.50;;
14030;SDS011;7090;49.436;8.490;2023-04-03T15:54:28;9.20;;;8.90;;
14030;SDS011;7090;49.436;8.490;2023-04-03T15:59:51;9.97;;;9.47;;
14030;SDS011;7090;49.436;8.490;2023-04-03T16:02:17;10.70;;;10.10;;
14030;SDS011;7090;49.436;8.490;2023-04-03T16:04:43;10.43;;;9.90;;
14030;SDS011;7090;49.436;8.490;2023-04-03T16:07:09;9.97;;;9.57;;
14030;SDS011;7090;49.436;8.490;2023-04-03T16:09:34;9.70;;;9.30;;
14030;SDS011;7090;49.436;8.490;2023-04-03T16:12:01;10.10;;;9.60;;
14030;SDS011;7090;49.436;8.490;2023-04-03T16:14:27;10.50;;;9.97;;
14030;SDS011;7090;49.436;8.490;2023-04-03T16:16:54;10.20;;;9.80;;
14030;SDS011;7090;49.436;8.490;2023-04-03T16:19:21;10.50;;;9.90;;
14030;SDS011;7090;49.436;8.490;2023-04-03T16:21:46;10.83;;;10.23;;
14030;SDS011;7090;49.436;8.490;2023-04-03T16:24:13;9.73;;;9.33;;
14030;SDS011;7090;49.436;8.490;2023-04-03T16:26:39;10.07;;;9.67;;
14030;SDS011;7090;49.436;8.490;2023-04-03T16:29:05;9.80;;;9.40;;
14030;SDS011;7090;49.436;8.490;2023-04-03T16:31:31;10.80;;;10.30;;
14030;SDS011;7090;49.436;8.490;2023-04-03T16:33:57;10.60;;;10.20;;
14030;SDS011;7090;49.436;8.490;2023-04-03T16:36:24;10.73;;;10.13;;
14030;SDS011;7090;49.436;8.490;2023-04-03T16:38:50;10.20;;;9.80;;
14030;SDS011;7090;49.436;8.490;2023-04-03T16:41:16;10.20;;;9.80;;
14030;SDS011;7090;49.436;8.490;2023-04-03T16:43:41;11.27;;;10.67;;
14030;SDS011;7090;49.436;8.490;2023-04-03T16:46:07;12.13;;;11.53;;
14030;SDS011;7090;49.436;8.490;2023-04-03T16:48:32;9.90;;;9.50;;
14030;SDS011;7090;49.436;8.490;2023-04-03T16:50:58;12.60;;;11.73;;
14030;SDS011;7090;49.436;8.490;2023-04-03T16:53:24;10.67;;;10.10;;
14030;SDS011;7090;49.436;8.490;2023-04-03T16:55:51;10.53;;;10.03;;
14030;SDS011;7090;49.436;8.490;2023-04-03T16:58:16;9.90;;;9.50;;
14030;SDS011;7090;49.436;8.490;2023-04-03T17:00:42;11.43;;;10.80;;
14030;SDS011;7090;49.436;8.490;2023-04-03T17:03:08;10.70;;;10.20;;
14030;SDS011;7090;49.436;8.490;2023-04-03T17:05:34;10.80;;;10.20;;
14030;SDS011;7090;49.436;8.490;2023-04-03T17:08:00;10.90;;;10.40;;
14030;SDS011;7090;49.436;8.490;2023-04-03T17:10:26;10.30;;;9.90;;
14030;SDS011;7090;49.436;8.490;2023-04-03T17:12:52;11.10;;;10.50;;
14030;SDS011;7090;49.436;8.490;2023-04-03T17:15:18;10.30;;;9.90;;
14030;SDS011;7090;49.436;8.490;2023-04-03T17:17:45;10.70;;;10.10;;
14030;SDS011;7090;49.436;8.490;2023-04-03T17:20:11;10.90;;;10.30;;
14030;SDS011;7090;49.436;8.490;2023-04-03T17:22:37;10.40;;;10.00;;
14030;SDS011;7090;49.436;8.490;2023-04-03T17:25:03;10.10;;;9.70;;
14030;SDS011;7090;49.436;8.490;2023-04-03T17:27:29;10.00;;;9.60;;
14030;SDS011;7090;49.436;8.490;2023-04-03T17:29:55;10.20;;;9.80;;
14030;SDS011;7090;49.436;8.490;2023-04-03T17:32:21;10.63;;;10.03;;
14030;SDS011;7090;49.436;8.490;2023-04-03T17:34:47;10.27;;;9.67;;
14030;SDS011;7090;49.436;8.490;2023-04-03T17:37:12;10.67;;;10.27;;
14030;SDS011;7090;49.436;8.490;2023-04-03T17:39:38;10.87;;;10.43;;
14030;SDS011;7090;49.436;8.490;2023-04-03T17:42:04;9.83;;;9.43;;
14030;SDS011;7090;49.436;8.490;2023-04-03T17:44:30;10.17;;;9.70;;
14030;SDS011;7090;49.436;8.490;2023-04-03T17:46:55;10.37;;;9.93;;
14030;SDS011;7090;49.436;8.490;2023-04-03T17:49:21;9.50;;;9.10;;